Millwood, KY (42762)

1:33 AM CDT on July 28, 2014 (GMT -0500)
Eveleigh Road (KKYLEITC8) Elev 670 ft | 37.58 °N, 86.34 °W | Change Station

Current weather conditions updated 4 seconds ago

Mostly Cloudy
Mostly Cloudy
70.9 °F
Feels Like 75 °F
N
3.8
Wind Variable Wind from NW
Gusts 8.3 mph

Today is forecast to be Much Cooler than yesterday.

Today
High -- | Low -- °F
--% Chance of Precip.
Yesterday
High -- | Low -- °F
Precip. -- in
5:46 AM 7:57 PM
New Moon, 2% visible
Pressure 29.90 in
Visibility 10.0 miles
Clouds Mostly Cloudy 8000 ft
Heat Index 75 °F
Dew Point 59 °F
Humidity 67%
Rainfall 0.00 in
Snow Depth Not available.
UV 0 out of 12
Pollen 5.20 out of 12
Air Quality Not available.
Flu Activity Not available.
METAR KBWG 280553Z AUTO 33007KT 10SM BKN080 25/15 A2992 RMK AO2 SLP125 60000 T02500150 10322 20250 403560228 53021

More Conditions Fewer Conditions

Pressure 29.90 in
Visibility 10.0 miles
Clouds Mostly Cloudy 8000 ft
Heat Index 75 °F
Dew Point 59 °F
Humidity 67%
Rainfall 0.00 in
Snow Depth Not available.
UV 0 out of 12
Pollen 5.20 out of 12
Air Quality Not available.
Flu Activity Not available.
METAR KBWG 280553Z AUTO 33007KT 10SM BKN080 25/15 A2992 RMK AO2 SLP125 60000 T02500150 10322 20250 403560228 53021

More Conditions Fewer Conditions

10-Day Weather Forecast

Almanac

Astronomy

Jul. 28, 2014 Rise Set
Actual Time 5:46 AM CDT 7:57 PM CDT
Civil Twilight 5:17 AM CDT 8:26 PM CDT
Nautical Twilight 4:41 AM CDT 9:02 PM CDT
Astronomical Twilight 4:02 AM CDT 9:40 PM CDT
Moon 7:24 AM CDT 8:42 PM CDT
Length of Visible Light 15h 09m
Length of Day
14h 10m
Tomorrow will be 1m 42s shorter.
New Moon, 2% of the Moon is Illuminated
Today
New Moon
Aug 3
First Quarter
Aug 10
Full
Aug 17
Last Quarter
Aug 25
New

Today's Extremes

State Highs State Lows

Community

WunderPhotos

Upload Photos

1,738,289 photos uploaded!

Nearby

Snow Depth

Station Depth Elevation
No new snow has been reported.

Earthquake Activity

City Distance Mag. Time & Date
No recent earthquake activity has been reported nearby.
Minimum magnitude displayed is 2.5.

Coastal Water Temperatures

Place Temperature
No Stations Reporting

Nearby Weather Stations

Station Location Temp. Heat Index Dew Point Humidity Wind Precip. Elev Updated Type
Eveleigh Road, Leitchfield, KY 70.9 °F 75 °F 59 °F 67% NW  at  3.8 mph 0.00 in / hr 670 ft 1:33 AM CDT Rapid Fire
Clark School Road, Clarkson, KY 68.5 °F - 54 °F 59% North  at  2.2 mph 0.00 in / hr 717 ft 1:33 AM CDT Rapid Fire
nolin lake, Clarkson, KY 71.4 °F 74 °F 61 °F 70% NNW  at  1.1 mph - / hr 643 ft 1:25 AM CDT Normal
Barton Run Lodge & Farm - Nolin Lake, Wax, KY 71.4 °F 76 °F 58 °F 62% North  at  0.0 mph 0.00 in / hr 597 ft 1:33 AM CDT Rapid Fire

Show More Stations Show Fewer Stations